createdAt,value
2023-01-23T00:01:26.669Z,35.40
2023-01-23T00:03:55.341Z,36.03
2023-01-23T00:06:22.996Z,35.90
2023-01-23T00:08:50.265Z,36.37
2023-01-23T00:11:23.064Z,35.67
2023-01-23T00:13:50.910Z,33.13
2023-01-23T00:16:20.790Z,35.20
2023-01-23T00:18:48.558Z,25.93
2023-01-23T00:21:18.953Z,31.40
2023-01-23T00:23:49.036Z,33.55
2023-01-23T00:26:19.172Z,27.67
2023-01-23T00:28:47.603Z,30.00
2023-01-23T00:31:18.014Z,33.00
2023-01-23T00:33:45.976Z,35.50
2023-01-23T00:36:15.202Z,29.73
2023-01-23T00:38:42.445Z,30.83
2023-01-23T00:41:09.728Z,28.90
2023-01-23T00:43:36.916Z,33.17
2023-01-23T00:46:04.336Z,31.10
2023-01-23T00:48:31.574Z,38.00
2023-01-23T00:50:58.726Z,36.40
2023-01-23T00:53:25.875Z,41.27
2023-01-23T00:55:53.695Z,27.93
2023-01-23T00:58:21.149Z,37.10
2023-01-23T01:00:49.528Z,26.63
2023-01-23T01:03:19.459Z,26.33
2023-01-23T01:05:47.271Z,32.70
2023-01-23T01:08:14.390Z,31.07
2023-01-23T01:10:41.821Z,32.47
2023-01-23T01:13:09.952Z,17.73
2023-01-23T01:15:37.886Z,30.33
2023-01-23T01:18:05.591Z,34.43
2023-01-23T01:20:32.744Z,38.93
2023-01-23T01:23:00.696Z,32.67
2023-01-23T01:25:28.042Z,29.97
2023-01-23T01:27:56.193Z,33.97
2023-01-23T01:30:27.141Z,26.03
2023-01-23T01:35:22.319Z,17.20
2023-01-23T01:37:50.580Z,20.17
2023-01-23T01:40:24.400Z,30.60
2023-01-23T01:43:03.575Z,29.93
2023-01-23T01:45:55.960Z,28.30
2023-01-23T01:48:26.843Z,28.60
2023-01-23T01:50:54.667Z,19.55
2023-01-23T01:53:26.160Z,17.63
2023-01-23T01:55:53.971Z,33.17
2023-01-23T01:58:21.703Z,20.00
2023-01-23T02:00:50.296Z,22.30
2023-01-23T02:03:19.594Z,25.63
2023-01-23T02:05:49.833Z,19.80
2023-01-23T02:08:28.812Z,21.65
2023-01-23T02:10:56.262Z,28.53
2023-01-23T02:13:36.140Z,23.90
2023-01-23T02:16:11.644Z,25.67
2023-01-23T02:18:44.667Z,23.07
2023-01-23T02:21:14.514Z,20.83
2023-01-23T02:24:08.262Z,27.20
2023-01-23T02:26:40.453Z,30.60
2023-01-23T02:29:09.348Z,24.63
2023-01-23T02:31:47.152Z,30.67
2023-01-23T02:34:15.404Z,31.17
2023-01-23T02:36:47.772Z,34.13
2023-01-23T02:39:19.552Z,31.17
2023-01-23T02:41:53.083Z,31.10
2023-01-23T02:44:29.375Z,33.30
2023-01-23T02:47:11.902Z,31.60
2023-01-23T02:49:40.483Z,30.03
2023-01-23T02:52:09.964Z,32.80
2023-01-23T02:54:37.432Z,27.30
2023-01-23T02:57:04.658Z,21.10
2023-01-23T02:59:50.300Z,28.27
2023-01-23T03:02:20.102Z,32.30
2023-01-23T03:04:48.555Z,27.93
2023-01-23T03:07:16.040Z,36.20
2023-01-23T03:09:46.325Z,35.53
2023-01-23T03:12:15.556Z,32.15
2023-01-23T03:14:42.639Z,29.00
2023-01-23T03:17:11.196Z,32.37
2023-01-23T03:19:39.224Z,23.23
2023-01-23T03:22:07.256Z,29.70
2023-01-23T03:24:35.529Z,31.90
2023-01-23T03:27:02.938Z,39.57
2023-01-23T03:29:55.177Z,48.33
2023-01-23T03:32:22.899Z,35.47
2023-01-23T03:34:50.068Z,38.73
2023-01-23T03:37:19.744Z,38.10
2023-01-23T03:40:05.933Z,37.50
2023-01-23T03:42:36.495Z,36.53
2023-01-23T03:45:06.864Z,35.23
2023-01-23T03:47:36.346Z,49.08
2023-01-23T03:50:04.177Z,38.97
2023-01-23T03:52:38.046Z,33.07
2023-01-23T03:55:07.113Z,36.33
2023-01-23T03:57:34.446Z,34.63
2023-01-23T04:00:22.224Z,34.60
2023-01-23T04:02:56.773Z,30.60
2023-01-23T04:05:24.265Z,31.70
2023-01-23T04:07:51.413Z,35.90
2023-01-23T04:10:19.136Z,32.77
2023-01-23T04:12:51.767Z,33.50
2023-01-23T04:15:19.558Z,28.53
2023-01-23T04:17:46.897Z,30.20
2023-01-23T04:20:14.536Z,34.47
2023-01-23T04:22:44.073Z,28.90
2023-01-23T04:25:11.402Z,30.87
2023-01-23T04:27:38.516Z,28.40
2023-01-23T04:30:07.554Z,22.20
2023-01-23T04:32:35.623Z,25.17
2023-01-23T04:35:03.215Z,22.17
2023-01-23T04:37:31.113Z,24.40
2023-01-23T04:39:59.353Z,32.33
2023-01-23T04:42:26.477Z,25.03
2023-01-23T04:44:56.395Z,18.80
2023-01-23T04:47:26.263Z,17.57
2023-01-23T04:49:53.687Z,18.53
2023-01-23T04:52:20.898Z,23.23
2023-01-23T04:54:55.590Z,21.63
2023-01-23T04:57:23.051Z,15.93
2023-01-23T04:59:56.008Z,16.70
2023-01-23T05:02:23.534Z,14.93
2023-01-23T05:04:50.719Z,18.87
2023-01-23T05:07:19.775Z,19.97
2023-01-23T05:10:02.823Z,20.73
2023-01-23T05:12:31.428Z,18.20
2023-01-23T05:14:59.448Z,19.17
2023-01-23T05:17:26.890Z,18.47
2023-01-23T05:19:54.351Z,26.17
2023-01-23T05:22:22.973Z,24.33
2023-01-23T05:24:50.645Z,22.67
2023-01-23T05:27:18.303Z,24.30
2023-01-23T05:29:49.770Z,34.83
2023-01-23T05:32:21.921Z,25.50
2023-01-23T05:34:57.489Z,24.43
2023-01-23T05:37:30.699Z,18.90
2023-01-23T05:40:08.351Z,27.77
2023-01-23T05:42:54.124Z,22.33
2023-01-23T05:45:39.942Z,18.20
2023-01-23T05:48:13.429Z,21.07
2023-01-23T05:50:41.773Z,18.87
2023-01-23T05:53:08.930Z,17.67
2023-01-23T05:55:40.113Z,22.83
2023-01-23T05:58:08.705Z,20.47
2023-01-23T06:00:58.314Z,20.10
2023-01-23T06:03:44.206Z,21.97
2023-01-23T06:06:43.927Z,16.50
2023-01-23T06:09:11.608Z,23.20
2023-01-23T06:11:39.257Z,26.23
2023-01-23T06:14:07.586Z,26.77
2023-01-23T06:16:35.019Z,26.67
2023-01-23T06:19:03.014Z,20.80
2023-01-23T06:21:32.729Z,18.83
2023-01-23T06:24:00.138Z,22.67
2023-01-23T06:26:28.640Z,20.17
2023-01-23T06:28:57.222Z,19.63
2023-01-23T06:31:24.444Z,18.87
2023-01-23T06:33:59.556Z,20.90
2023-01-23T06:36:31.835Z,18.77
2023-01-23T06:38:59.963Z,17.70
2023-01-23T06:41:33.880Z,20.63
2023-01-23T06:44:04.919Z,23.75
2023-01-23T06:46:32.313Z,17.87
2023-01-23T06:48:59.542Z,24.73
2023-01-23T06:51:29.170Z,23.60
2023-01-23T06:53:57.471Z,14.97
2023-01-23T06:56:25.043Z,19.33
2023-01-23T06:58:53.266Z,18.48
2023-01-23T07:01:26.608Z,16.00
2023-01-23T07:04:14.053Z,13.77
2023-01-23T07:06:42.603Z,16.50
2023-01-23T07:09:12.099Z,19.07
2023-01-23T07:11:40.389Z,19.83
2023-01-23T07:14:07.919Z,20.53
2023-01-23T07:16:37.114Z,15.43
2023-01-23T07:19:05.748Z,17.87
2023-01-23T07:21:35.471Z,18.00
2023-01-23T07:24:02.639Z,19.40
2023-01-23T07:26:29.816Z,12.40
2023-01-23T07:28:57.159Z,22.73
2023-01-23T07:31:24.462Z,20.57
2023-01-23T07:33:51.853Z,11.00
2023-01-23T07:36:19.271Z,15.57
2023-01-23T07:38:46.382Z,12.27
2023-01-23T07:41:13.501Z,12.90
2023-01-23T07:43:40.612Z,14.53
2023-01-23T07:46:09.578Z,15.57
2023-01-23T07:48:37.721Z,13.67
2023-01-23T07:51:05.710Z,15.13
2023-01-23T07:53:33.218Z,17.13
2023-01-23T07:56:00.351Z,17.27
2023-01-23T07:58:27.421Z,17.10
2023-01-23T08:00:54.552Z,15.87
2023-01-23T08:03:21.738Z,17.50
2023-01-23T08:05:50.119Z,19.53
2023-01-23T08:08:17.274Z,17.93
2023-01-23T08:10:44.404Z,16.23
2023-01-23T08:13:11.947Z,17.50
2023-01-23T08:15:39.129Z,15.33
2023-01-23T08:18:06.512Z,14.27
2023-01-23T08:20:33.963Z,10.83
2023-01-23T08:23:02.458Z,13.40
2023-01-23T08:25:30.386Z,15.40
2023-01-23T08:27:57.932Z,16.80
2023-01-23T08:30:24.996Z,14.47
2023-01-23T08:32:52.185Z,20.13
2023-01-23T08:35:19.349Z,12.93
2023-01-23T08:37:46.422Z,15.50
2023-01-23T08:40:13.839Z,11.77
2023-01-23T08:42:40.982Z,12.60
2023-01-23T08:45:08.613Z,16.15
2023-01-23T08:47:36.967Z,16.57
2023-01-23T08:50:08.125Z,14.67
2023-01-23T08:55:02.711Z,19.17
2023-01-23T08:57:31.223Z,11.93
2023-01-23T08:59:58.482Z,12.40
2023-01-23T09:02:25.630Z,16.40
2023-01-23T09:04:52.737Z,20.23
2023-01-23T09:07:19.890Z,13.10
2023-01-23T09:09:47.097Z,12.80
2023-01-23T09:12:14.250Z,12.70
2023-01-23T09:14:41.470Z,15.93
2023-01-23T09:17:08.622Z,14.00
2023-01-23T09:19:35.966Z,18.27
2023-01-23T09:22:03.774Z,14.57
2023-01-23T09:24:30.999Z,15.53
2023-01-23T09:26:58.154Z,15.20
2023-01-23T09:29:25.273Z,18.53
2023-01-23T09:31:52.495Z,16.97
2023-01-23T09:34:19.729Z,19.63
2023-01-23T09:36:46.848Z,24.57
2023-01-23T09:39:13.990Z,23.70
2023-01-23T09:41:43.834Z,22.87
2023-01-23T09:44:20.627Z,28.97
2023-01-23T09:47:02.510Z,30.00
2023-01-23T09:49:38.778Z,29.87
2023-01-23T09:52:12.648Z,29.67
2023-01-23T09:55:00.259Z,22.43
2023-01-23T09:57:33.543Z,25.60
2023-01-23T10:00:15.646Z,25.70
2023-01-23T10:02:44.562Z,27.83
2023-01-23T10:05:17.333Z,25.17
2023-01-23T10:08:03.180Z,22.83
2023-01-23T10:10:53.080Z,23.50
2023-01-23T10:13:48.709Z,22.13
2023-01-23T10:16:54.395Z,24.23
2023-01-23T10:19:36.494Z,23.40
2023-01-23T10:22:24.566Z,33.30
2023-01-23T10:24:57.341Z,26.87
2023-01-23T10:27:44.045Z,21.33
2023-01-23T10:30:13.952Z,30.60
2023-01-23T10:32:52.813Z,24.08
2023-01-23T10:35:32.339Z,27.13
2023-01-23T10:38:38.704Z,29.53
2023-01-23T10:41:14.781Z,27.70
2023-01-23T10:43:43.976Z,29.47
2023-01-23T10:46:19.112Z,26.17
2023-01-23T10:48:48.408Z,27.57
2023-01-23T10:51:47.015Z,25.13
2023-01-23T10:54:32.350Z,25.83
2023-01-23T10:57:26.828Z,25.67
2023-01-23T10:59:55.874Z,25.57
2023-01-23T11:02:33.015Z,21.60
2023-01-23T11:05:01.507Z,26.73
2023-01-23T11:07:37.092Z,26.52
2023-01-23T11:10:10.346Z,26.40
2023-01-23T11:12:48.355Z,32.22
2023-01-23T11:15:24.771Z,26.83
2023-01-23T11:17:54.657Z,18.52
2023-01-23T11:20:24.661Z,27.50
2023-01-23T11:23:11.060Z,23.48
2023-01-23T11:25:39.486Z,18.47
2023-01-23T11:28:34.092Z,31.27
2023-01-23T11:31:32.449Z,27.70
2023-01-23T11:34:00.171Z,35.27
2023-01-23T11:36:37.821Z,26.38
2023-01-23T11:39:16.708Z,30.00
2023-01-23T11:41:46.222Z,29.40
2023-01-23T11:44:18.678Z,32.72
2023-01-23T11:47:24.331Z,26.05
2023-01-23T11:50:10.904Z,24.63
2023-01-23T11:52:49.722Z,29.08
2023-01-23T11:55:16.772Z,30.47
2023-01-23T11:58:05.998Z,24.57
2023-01-23T12:00:41.688Z,27.10
2023-01-23T12:03:53.559Z,34.15
2023-01-23T12:06:29.032Z,38.47
2023-01-23T12:09:17.025Z,31.92
2023-01-23T12:12:09.046Z,29.30
2023-01-23T12:14:46.781Z,27.20
2023-01-23T12:17:28.300Z,29.20
2023-01-23T12:20:21.574Z,34.42
2023-01-23T12:23:23.877Z,35.88
2023-01-23T12:26:05.620Z,28.67
2023-01-23T12:28:51.385Z,32.92
2023-01-23T12:31:54.549Z,32.40
2023-01-23T12:34:36.678Z,27.23
2023-01-23T12:37:29.592Z,25.65
2023-01-23T12:40:10.849Z,29.30
2023-01-23T12:42:45.491Z,27.33
2023-01-23T12:45:25.017Z,34.45
2023-01-23T12:48:09.941Z,28.70
2023-01-23T12:50:44.452Z,35.33
2023-01-23T12:53:14.912Z,34.60
2023-01-23T12:56:06.518Z,33.25
2023-01-23T12:58:37.662Z,30.30
2023-01-23T13:01:28.244Z,32.53
2023-01-23T13:04:04.469Z,34.92
2023-01-23T13:06:37.343Z,35.63
2023-01-23T13:09:16.608Z,29.95
2023-01-23T13:12:25.221Z,34.30
2023-01-23T13:17:49.723Z,28.20
2023-01-23T13:20:38.216Z,30.87
2023-01-23T13:23:31.756Z,34.67
2023-01-23T13:26:19.552Z,31.35
2023-01-23T13:28:57.997Z,29.65
2023-01-23T13:31:36.528Z,41.05
2023-01-23T13:34:24.805Z,31.85
2023-01-23T13:36:53.332Z,33.47
2023-01-23T13:39:29.562Z,31.53
2023-01-23T13:42:15.045Z,32.70
2023-01-23T13:45:19.702Z,38.87
2023-01-23T14:22:11.473Z,38.67
2023-01-23T14:25:14.476Z,49.70
2023-01-23T14:27:52.942Z,31.60
2023-01-23T14:30:27.244Z,39.83
2023-01-23T14:32:55.120Z,36.47
2023-01-23T14:35:33.219Z,39.70
2023-01-23T14:38:05.358Z,39.15
2023-01-23T14:40:46.678Z,35.58
2023-01-23T14:43:27.795Z,38.65
2023-01-23T14:46:08.052Z,36.38
2023-01-23T14:48:39.279Z,38.50
2023-01-23T14:51:18.956Z,35.05
2023-01-23T14:54:29.593Z,39.45
2023-01-23T14:57:01.860Z,32.27
2023-01-23T14:59:36.270Z,43.85
2023-01-23T15:02:23.430Z,38.97
2023-01-23T15:05:30.430Z,37.40
2023-01-23T15:08:07.425Z,40.65
2023-01-23T15:10:43.680Z,41.47
2023-01-23T15:13:25.277Z,39.33
2023-01-23T15:15:58.350Z,39.63
2023-01-23T15:18:30.427Z,39.97
2023-01-23T15:21:00.110Z,41.20
2023-01-23T15:23:31.461Z,26.98
2023-01-23T15:26:10.911Z,37.67
2023-01-23T15:28:52.704Z,42.75
2023-01-23T15:31:28.401Z,40.47
2023-01-23T15:33:57.495Z,38.50
2023-01-23T15:36:31.333Z,40.75
2023-01-23T15:38:59.920Z,47.53
2023-01-23T15:41:48.397Z,39.78
2023-01-23T15:44:18.032Z,41.67
2023-01-23T15:46:45.805Z,40.95
2023-01-23T15:49:24.358Z,37.88
2023-01-23T15:51:55.793Z,40.15
2023-01-23T15:54:41.352Z,36.35
2023-01-23T15:57:13.970Z,29.67
2023-01-23T15:59:41.623Z,38.47
2023-01-23T16:02:29.459Z,42.88
2023-01-23T16:04:57.627Z,37.22
2023-01-23T16:07:34.867Z,43.55
2023-01-23T16:10:15.720Z,35.78
2023-01-23T16:12:42.840Z,34.85
2023-01-23T16:15:17.886Z,45.67
2023-01-23T16:17:45.517Z,45.88
2023-01-23T16:20:20.585Z,36.33
2023-01-23T16:22:53.872Z,35.63
2023-01-23T16:25:44.631Z,49.35
2023-01-23T16:28:20.353Z,43.03
2023-01-23T16:30:49.158Z,42.97
2023-01-23T16:33:16.632Z,39.73
2023-01-23T16:35:44.686Z,38.13
2023-01-23T16:38:23.915Z,45.47
2023-01-23T16:40:53.403Z,36.38
2023-01-23T16:43:22.005Z,43.28
2023-01-23T16:45:49.472Z,44.50
2023-01-23T16:48:26.495Z,43.53
2023-01-23T16:50:59.390Z,33.38
2023-01-23T16:53:30.039Z,39.60
2023-01-23T16:55:59.420Z,49.05
2023-01-23T16:58:29.783Z,41.33
2023-01-23T17:01:08.799Z,42.85
2023-01-23T17:03:40.910Z,37.17
2023-01-23T17:06:16.207Z,35.83
2023-01-23T17:08:43.324Z,41.53
2023-01-23T17:11:37.465Z,34.15
2023-01-23T17:14:14.923Z,36.58
2023-01-23T17:16:43.242Z,37.45
2023-01-23T17:19:18.642Z,35.42
2023-01-23T17:21:46.248Z,40.65
2023-01-23T17:24:17.798Z,35.15
2023-01-23T17:26:45.161Z,48.83
2023-01-23T17:29:12.696Z,41.20
2023-01-23T17:31:40.229Z,46.92
2023-01-23T17:34:12.427Z,39.85
2023-01-23T17:36:39.683Z,36.55
2023-01-23T17:39:08.741Z,31.08
2023-01-23T17:41:35.869Z,37.88
2023-01-23T17:44:03.024Z,39.75
2023-01-23T17:46:32.874Z,36.80
2023-01-23T17:49:00.602Z,36.13
2023-01-23T17:51:27.699Z,36.50
2023-01-23T17:53:55.281Z,36.35
2023-01-23T17:56:22.536Z,30.52
2023-01-23T17:58:49.645Z,36.35
2023-01-23T18:01:24.828Z,30.05
2023-01-23T18:03:53.843Z,29.33
2023-01-23T18:06:21.002Z,30.75
2023-01-23T18:08:48.069Z,27.92
2023-01-23T18:11:24.464Z,26.92
2023-01-23T18:14:03.078Z,23.27
2023-01-23T18:16:40.222Z,33.30
2023-01-23T18:19:19.697Z,30.30
2023-01-23T18:21:51.234Z,28.63
2023-01-23T18:24:31.523Z,22.53
2023-01-23T18:27:22.617Z,21.85
2023-01-23T18:30:01.453Z,18.42
2023-01-23T18:32:56.489Z,23.30
2023-01-23T18:35:27.707Z,25.37
2023-01-23T18:38:06.856Z,16.52
2023-01-23T18:40:55.851Z,22.20
2023-01-23T18:43:38.630Z,22.45
2023-01-23T18:46:12.682Z,21.27
2023-01-23T18:48:42.759Z,20.95
2023-01-23T18:51:33.022Z,23.37
2023-01-23T18:54:12.255Z,20.70
2023-01-23T18:57:04.307Z,23.45
2023-01-23T18:59:53.564Z,19.60
2023-01-23T19:02:29.658Z,23.20
2023-01-23T19:05:10.211Z,25.83
2023-01-23T19:07:38.362Z,23.10
2023-01-23T19:10:07.915Z,21.67
2023-01-23T19:12:44.820Z,21.05
2023-01-23T19:15:36.788Z,23.45
2023-01-23T19:18:39.212Z,17.15
2023-01-23T19:21:23.121Z,22.60
2023-01-23T19:24:04.558Z,20.87
2023-01-23T19:26:40.271Z,24.95
2023-01-23T19:29:26.126Z,18.58
2023-01-23T19:32:09.198Z,22.45
2023-01-23T19:34:36.337Z,29.40
2023-01-23T19:37:04.055Z,18.52
2023-01-23T19:39:31.209Z,21.25
2023-01-23T19:41:59.504Z,22.52
2023-01-23T19:44:29.075Z,19.67
2023-01-23T19:46:56.307Z,16.73
2023-01-23T19:49:25.226Z,23.23
2023-01-23T19:51:52.513Z,20.05
2023-01-23T19:54:21.177Z,24.60
2023-01-23T19:56:49.425Z,23.57
2023-01-23T19:59:16.583Z,18.23
2023-01-23T20:01:49.744Z,20.43
2023-01-23T20:04:23.010Z,21.13
2023-01-23T20:06:52.207Z,19.73
2023-01-23T20:09:20.325Z,21.23
2023-01-23T20:11:47.558Z,21.20
2023-01-23T20:14:14.922Z,20.25
2023-01-23T20:16:43.287Z,20.73
2023-01-23T20:19:15.467Z,28.20
2023-01-23T20:21:43.393Z,22.45
2023-01-23T20:24:11.084Z,18.13
2023-01-23T20:26:38.945Z,16.77
2023-01-23T20:29:08.055Z,23.23
2023-01-23T20:31:35.943Z,25.30
2023-01-23T20:34:03.244Z,22.15
2023-01-23T20:36:30.341Z,22.57
2023-01-23T20:38:57.439Z,19.13
2023-01-23T20:41:24.637Z,17.03
2023-01-23T20:43:51.890Z,24.33
2023-01-23T20:46:21.786Z,21.92
2023-01-23T20:48:49.093Z,24.37
2023-01-23T20:51:18.203Z,22.30
2023-01-23T20:53:46.088Z,17.33
2023-01-23T20:56:27.405Z,21.97
2023-01-23T20:59:15.307Z,22.35
2023-01-23T21:02:02.280Z,20.57
2023-01-23T21:04:32.233Z,25.42
2023-01-23T21:07:00.177Z,25.55
2023-01-23T21:09:27.948Z,23.25
2023-01-23T21:11:55.369Z,22.20
2023-01-23T21:14:23.424Z,25.17
2023-01-23T21:16:50.778Z,24.95
2023-01-23T21:19:18.617Z,25.17
2023-01-23T21:21:45.794Z,20.50
2023-01-23T21:24:13.107Z,20.83
2023-01-23T21:26:40.404Z,25.67
2023-01-23T21:29:08.585Z,22.20
2023-01-23T21:31:37.515Z,22.08
2023-01-23T21:34:08.155Z,21.43
2023-01-23T21:36:35.904Z,23.40
2023-01-23T21:39:04.593Z,23.43
2023-01-23T21:41:31.917Z,19.00
2023-01-23T21:43:59.071Z,24.37
2023-01-23T21:46:26.628Z,23.63
2023-01-23T21:48:53.777Z,21.20
2023-01-23T21:51:23.114Z,21.57
2023-01-23T21:53:51.353Z,19.87
2023-01-23T21:56:20.698Z,20.13
2023-01-23T21:58:48.412Z,22.70
2023-01-23T22:01:39.466Z,21.13
2023-01-23T22:04:25.866Z,19.90
2023-01-23T22:06:55.701Z,21.92
2023-01-23T22:09:24.954Z,24.60
2023-01-23T22:11:52.278Z,20.07
2023-01-23T22:14:19.540Z,24.17
2023-01-23T22:16:49.366Z,19.93
2023-01-23T22:19:24.534Z,20.60
2023-01-23T22:21:54.196Z,18.27
2023-01-23T22:24:21.500Z,20.67
2023-01-23T22:26:48.601Z,17.93
2023-01-23T22:29:15.745Z,21.10
2023-01-23T22:31:43.752Z,20.13
2023-01-23T22:34:11.492Z,22.77
2023-01-23T22:36:38.654Z,20.47
2023-01-23T22:39:05.912Z,24.93
2023-01-23T22:41:33.091Z,25.88
2023-01-23T22:44:00.421Z,19.80
2023-01-23T22:46:29.016Z,25.53
2023-01-23T22:48:56.320Z,18.97
2023-01-23T22:51:26.010Z,22.38
2023-01-23T22:53:57.736Z,23.83
2023-01-23T22:56:26.836Z,24.13
2023-01-23T22:58:55.549Z,19.40
2023-01-23T23:01:24.141Z,23.27
2023-01-23T23:03:51.601Z,28.03
2023-01-23T23:06:20.376Z,24.97
2023-01-23T23:08:48.435Z,22.80
2023-01-23T23:11:21.572Z,19.30
2023-01-23T23:13:49.467Z,25.70
2023-01-23T23:16:19.703Z,21.47
2023-01-23T23:18:48.687Z,20.80
2023-01-23T23:21:19.048Z,19.73
2023-01-23T23:23:47.013Z,25.42
2023-01-23T23:26:14.482Z,19.98
2023-01-23T23:28:41.872Z,22.98
2023-01-23T23:31:10.165Z,19.52
2023-01-23T23:33:37.695Z,26.92
2023-01-23T23:36:05.906Z,20.83
2023-01-23T23:38:33.356Z,21.55
2023-01-23T23:41:06.971Z,21.88
2023-01-23T23:43:34.573Z,21.73
2023-01-23T23:46:05.109Z,18.67
2023-01-23T23:48:35.209Z,23.52
2023-01-23T23:51:05.303Z,25.05
2023-01-23T23:53:33.539Z,26.23
2023-01-23T23:56:00.665Z,24.60
2023-01-23T23:58:27.879Z,18.27
